sensor_id;sensor_type;location;lat;lon;timestamp;P1;durP1;ratioP1;P2;durP2;ratioP2
25922;SDS011;13725;51.170;4.442;2023-12-20T00:01:05;15.55;;;3.25;;
25922;SDS011;13725;51.170;4.442;2023-12-20T00:03:31;15.68;;;3.40;;
25922;SDS011;13725;51.170;4.442;2023-12-20T00:05:56;15.98;;;3.13;;
25922;SDS011;13725;51.170;4.442;2023-12-20T00:08:22;17.02;;;3.13;;
25922;SDS011;13725;51.170;4.442;2023-12-20T00:10:48;18.13;;;3.13;;
25922;SDS011;13725;51.170;4.442;2023-12-20T00:13:14;12.50;;;2.85;;
25922;SDS011;13725;51.170;4.442;2023-12-20T00:15:39;14.27;;;2.67;;
25922;SDS011;13725;51.170;4.442;2023-12-20T00:18:05;21.75;;;2.47;;
25922;SDS011;13725;51.170;4.442;2023-12-20T00:20:31;13.30;;;2.47;;
25922;SDS011;13725;51.170;4.442;2023-12-20T00:22:57;12.10;;;2.38;;
25922;SDS011;13725;51.170;4.442;2023-12-20T00:25:23;18.70;;;2.25;;
25922;SDS011;13725;51.170;4.442;2023-12-20T00:27:49;16.02;;;2.63;;
25922;SDS011;13725;51.170;4.442;2023-12-20T00:30:15;21.88;;;2.53;;
25922;SDS011;13725;51.170;4.442;2023-12-20T00:32:41;24.30;;;3.70;;
25922;SDS011;13725;51.170;4.442;2023-12-20T00:35:12;19.65;;;2.95;;
25922;SDS011;13725;51.170;4.442;2023-12-20T00:37:41;14.90;;;3.30;;
25922;SDS011;13725;51.170;4.442;2023-12-20T00:40:08;24.45;;;3.40;;
25922;SDS011;13725;51.170;4.442;2023-12-20T00:42:34;20.20;;;3.95;;
25922;SDS011;13725;51.170;4.442;2023-12-20T00:45:00;22.92;;;3.90;;
25922;SDS011;13725;51.170;4.442;2023-12-20T00:47:26;24.80;;;3.60;;
25922;SDS011;13725;51.170;4.442;2023-12-20T00:49:52;17.30;;;3.05;;
25922;SDS011;13725;51.170;4.442;2023-12-20T00:52:18;27.52;;;4.55;;
25922;SDS011;13725;51.170;4.442;2023-12-20T00:54:43;16.77;;;2.85;;
25922;SDS011;13725;51.170;4.442;2023-12-20T00:57:09;22.23;;;3.72;;
25922;SDS011;13725;51.170;4.442;2023-12-20T00:59:35;24.30;;;3.53;;
25922;SDS011;13725;51.170;4.442;2023-12-20T01:02:01;14.07;;;3.20;;
25922;SDS011;13725;51.170;4.442;2023-12-20T01:04:27;22.88;;;3.35;;
25922;SDS011;13725;51.170;4.442;2023-12-20T01:06:53;19.27;;;3.72;;
25922;SDS011;13725;51.170;4.442;2023-12-20T01:09:19;21.42;;;3.72;;
25922;SDS011;13725;51.170;4.442;2023-12-20T01:11:45;27.08;;;4.43;;
25922;SDS011;13725;51.170;4.442;2023-12-20T01:14:13;23.02;;;4.15;;
25922;SDS011;13725;51.170;4.442;2023-12-20T01:16:39;18.65;;;3.55;;
25922;SDS011;13725;51.170;4.442;2023-12-20T01:19:04;26.25;;;3.83;;
25922;SDS011;13725;51.170;4.442;2023-12-20T01:21:30;25.83;;;3.88;;
25922;SDS011;13725;51.170;4.442;2023-12-20T01:23:56;23.02;;;3.47;;
25922;SDS011;13725;51.170;4.442;2023-12-20T01:26:21;23.65;;;3.95;;
25922;SDS011;13725;51.170;4.442;2023-12-20T01:28:47;23.42;;;4.30;;
25922;SDS011;13725;51.170;4.442;2023-12-20T01:31:13;22.27;;;3.85;;
25922;SDS011;13725;51.170;4.442;2023-12-20T01:33:39;28.38;;;4.15;;
25922;SDS011;13725;51.170;4.442;2023-12-20T01:36:04;25.50;;;4.18;;
25922;SDS011;13725;51.170;4.442;2023-12-20T01:38:30;19.30;;;3.60;;
25922;SDS011;13725;51.170;4.442;2023-12-20T01:40:56;25.90;;;3.90;;
25922;SDS011;13725;51.170;4.442;2023-12-20T01:43:21;22.33;;;3.70;;
25922;SDS011;13725;51.170;4.442;2023-12-20T01:45:47;23.10;;;3.50;;
25922;SDS011;13725;51.170;4.442;2023-12-20T01:48:13;30.50;;;5.25;;
25922;SDS011;13725;51.170;4.442;2023-12-20T01:50:41;21.58;;;4.60;;
25922;SDS011;13725;51.170;4.442;2023-12-20T01:53:08;30.73;;;5.10;;
25922;SDS011;13725;51.170;4.442;2023-12-20T01:55:38;34.33;;;5.57;;
25922;SDS011;13725;51.170;4.442;2023-12-20T01:58:05;19.85;;;4.57;;
25922;SDS011;13725;51.170;4.442;2023-12-20T02:00:32;21.60;;;5.25;;
25922;SDS011;13725;51.170;4.442;2023-12-20T02:03:01;29.85;;;6.60;;
25922;SDS011;13725;51.170;4.442;2023-12-20T02:05:29;26.95;;;5.82;;
25922;SDS011;13725;51.170;4.442;2023-12-20T02:07:55;27.58;;;6.47;;
25922;SDS011;13725;51.170;4.442;2023-12-20T02:10:21;20.50;;;5.57;;
25922;SDS011;13725;51.170;4.442;2023-12-20T02:12:47;22.45;;;6.05;;
25922;SDS011;13725;51.170;4.442;2023-12-20T02:15:12;25.98;;;5.80;;
25922;SDS011;13725;51.170;4.442;2023-12-20T02:17:38;21.40;;;5.93;;
25922;SDS011;13725;51.170;4.442;2023-12-20T02:20:06;25.10;;;6.03;;
25922;SDS011;13725;51.170;4.442;2023-12-20T02:22:32;40.08;;;5.95;;
25922;SDS011;13725;51.170;4.442;2023-12-20T02:24:58;26.25;;;6.00;;
25922;SDS011;13725;51.170;4.442;2023-12-20T02:27:23;27.20;;;5.47;;
25922;SDS011;13725;51.170;4.442;2023-12-20T02:29:49;27.20;;;6.05;;
25922;SDS011;13725;51.170;4.442;2023-12-20T02:32:19;32.83;;;5.72;;
25922;SDS011;13725;51.170;4.442;2023-12-20T02:34:46;31.20;;;5.60;;
25922;SDS011;13725;51.170;4.442;2023-12-20T02:37:13;29.67;;;4.93;;
25922;SDS011;13725;51.170;4.442;2023-12-20T02:39:39;28.63;;;5.53;;
25922;SDS011;13725;51.170;4.442;2023-12-20T02:42:05;22.60;;;5.78;;
25922;SDS011;13725;51.170;4.442;2023-12-20T02:44:30;27.60;;;4.93;;
25922;SDS011;13725;51.170;4.442;2023-12-20T02:46:56;24.27;;;5.30;;
25922;SDS011;13725;51.170;4.442;2023-12-20T02:49:22;30.52;;;5.72;;
25922;SDS011;13725;51.170;4.442;2023-12-20T02:51:47;35.90;;;4.78;;
25922;SDS011;13725;51.170;4.442;2023-12-20T02:54:13;26.27;;;4.90;;
25922;SDS011;13725;51.170;4.442;2023-12-20T02:56:39;22.10;;;4.10;;
25922;SDS011;13725;51.170;4.442;2023-12-20T02:59:05;30.58;;;5.20;;
25922;SDS011;13725;51.170;4.442;2023-12-20T03:01:31;19.70;;;4.63;;
25922;SDS011;13725;51.170;4.442;2023-12-20T03:03:57;30.55;;;4.68;;
25922;SDS011;13725;51.170;4.442;2023-12-20T03:06:23;32.15;;;5.35;;
25922;SDS011;13725;51.170;4.442;2023-12-20T03:08:51;32.63;;;4.53;;
25922;SDS011;13725;51.170;4.442;2023-12-20T03:11:17;22.73;;;4.20;;
25922;SDS011;13725;51.170;4.442;2023-12-20T03:13:42;29.40;;;4.00;;
25922;SDS011;13725;51.170;4.442;2023-12-20T03:16:09;21.70;;;4.30;;
25922;SDS011;13725;51.170;4.442;2023-12-20T03:18:35;23.27;;;4.20;;
25922;SDS011;13725;51.170;4.442;2023-12-20T03:21:01;26.90;;;5.00;;
25922;SDS011;13725;51.170;4.442;2023-12-20T03:23:27;26.15;;;4.18;;
25922;SDS011;13725;51.170;4.442;2023-12-20T03:25:52;24.63;;;4.20;;
25922;SDS011;13725;51.170;4.442;2023-12-20T03:28:18;25.73;;;4.72;;
25922;SDS011;13725;51.170;4.442;2023-12-20T03:30:44;32.20;;;4.47;;
25922;SDS011;13725;51.170;4.442;2023-12-20T03:33:10;22.58;;;4.93;;
25922;SDS011;13725;51.170;4.442;2023-12-20T03:35:36;31.33;;;4.32;;
25922;SDS011;13725;51.170;4.442;2023-12-20T03:38:02;24.38;;;3.42;;
25922;SDS011;13725;51.170;4.442;2023-12-20T03:40:27;25.85;;;4.22;;
25922;SDS011;13725;51.170;4.442;2023-12-20T03:42:53;24.38;;;4.25;;
25922;SDS011;13725;51.170;4.442;2023-12-20T03:45:19;28.92;;;4.78;;
25922;SDS011;13725;51.170;4.442;2023-12-20T03:47:44;16.73;;;4.93;;
25922;SDS011;13725;51.170;4.442;2023-12-20T03:50:10;27.00;;;4.07;;
25922;SDS011;13725;51.170;4.442;2023-12-20T03:52:36;29.63;;;4.65;;
25922;SDS011;13725;51.170;4.442;2023-12-20T03:55:02;31.23;;;4.13;;
25922;SDS011;13725;51.170;4.442;2023-12-20T03:57:28;25.55;;;5.88;;
25922;SDS011;13725;51.170;4.442;2023-12-20T03:59:54;22.60;;;4.20;;
25922;SDS011;13725;51.170;4.442;2023-12-20T04:02:20;24.05;;;3.63;;
25922;SDS011;13725;51.170;4.442;2023-12-20T04:04:45;20.77;;;4.63;;
25922;SDS011;13725;51.170;4.442;2023-12-20T04:07:11;27.83;;;4.30;;
25922;SDS011;13725;51.170;4.442;2023-12-20T04:09:37;30.55;;;5.63;;
25922;SDS011;13725;51.170;4.442;2023-12-20T04:12:03;24.63;;;4.78;;
25922;SDS011;13725;51.170;4.442;2023-12-20T04:14:30;27.85;;;3.47;;
25922;SDS011;13725;51.170;4.442;2023-12-20T04:16:56;21.88;;;3.75;;
25922;SDS011;13725;51.170;4.442;2023-12-20T04:19:22;23.58;;;4.93;;
25922;SDS011;13725;51.170;4.442;2023-12-20T04:21:48;30.17;;;4.20;;
25922;SDS011;13725;51.170;4.442;2023-12-20T04:24:13;34.58;;;4.03;;
25922;SDS011;13725;51.170;4.442;2023-12-20T04:26:39;24.40;;;3.95;;
25922;SDS011;13725;51.170;4.442;2023-12-20T04:29:05;23.05;;;5.03;;
25922;SDS011;13725;51.170;4.442;2023-12-20T04:31:32;26.77;;;3.92;;
25922;SDS011;13725;51.170;4.442;2023-12-20T04:33:57;29.38;;;4.70;;
25922;SDS011;13725;51.170;4.442;2023-12-20T04:36:23;32.75;;;4.43;;
25922;SDS011;13725;51.170;4.442;2023-12-20T04:38:51;28.05;;;5.97;;
25922;SDS011;13725;51.170;4.442;2023-12-20T04:41:18;23.88;;;4.25;;
25922;SDS011;13725;51.170;4.442;2023-12-20T04:43:44;30.33;;;3.70;;
25922;SDS011;13725;51.170;4.442;2023-12-20T04:46:10;24.00;;;4.60;;
25922;SDS011;13725;51.170;4.442;2023-12-20T04:48:36;25.52;;;4.20;;
25922;SDS011;13725;51.170;4.442;2023-12-20T04:51:01;20.85;;;4.00;;
25922;SDS011;13725;51.170;4.442;2023-12-20T04:53:27;26.77;;;4.88;;
25922;SDS011;13725;51.170;4.442;2023-12-20T04:55:53;14.38;;;3.53;;
25922;SDS011;13725;51.170;4.442;2023-12-20T04:58:19;35.92;;;4.70;;
25922;SDS011;13725;51.170;4.442;2023-12-20T05:00:45;29.42;;;3.95;;
25922;SDS011;13725;51.170;4.442;2023-12-20T05:03:10;28.23;;;4.13;;
25922;SDS011;13725;51.170;4.442;2023-12-20T05:05:36;26.20;;;4.50;;
25922;SDS011;13725;51.170;4.442;2023-12-20T05:08:03;21.40;;;4.22;;
25922;SDS011;13725;51.170;4.442;2023-12-20T05:10:29;29.27;;;3.78;;
25922;SDS011;13725;51.170;4.442;2023-12-20T05:12:55;28.10;;;4.30;;
25922;SDS011;13725;51.170;4.442;2023-12-20T05:15:21;33.95;;;4.30;;
25922;SDS011;13725;51.170;4.442;2023-12-20T05:17:47;28.27;;;4.38;;
25922;SDS011;13725;51.170;4.442;2023-12-20T05:20:12;20.35;;;4.20;;
25922;SDS011;13725;51.170;4.442;2023-12-20T05:22:38;25.00;;;4.57;;
25922;SDS011;13725;51.170;4.442;2023-12-20T05:25:05;19.63;;;4.78;;
25922;SDS011;13725;51.170;4.442;2023-12-20T05:27:31;29.42;;;4.55;;
25922;SDS011;13725;51.170;4.442;2023-12-20T05:29:56;25.58;;;4.10;;
25922;SDS011;13725;51.170;4.442;2023-12-20T05:32:23;21.27;;;3.40;;
25922;SDS011;13725;51.170;4.442;2023-12-20T05:34:49;23.23;;;4.97;;
25922;SDS011;13725;51.170;4.442;2023-12-20T05:37:14;23.77;;;4.55;;
25922;SDS011;13725;51.170;4.442;2023-12-20T05:39:40;25.85;;;3.85;;
25922;SDS011;13725;51.170;4.442;2023-12-20T05:42:06;27.05;;;3.92;;
25922;SDS011;13725;51.170;4.442;2023-12-20T05:44:31;23.85;;;4.82;;
25922;SDS011;13725;51.170;4.442;2023-12-20T05:46:57;28.67;;;3.85;;
25922;SDS011;13725;51.170;4.442;2023-12-20T05:49:23;23.40;;;5.38;;
25922;SDS011;13725;51.170;4.442;2023-12-20T05:51:49;21.45;;;3.75;;
25922;SDS011;13725;51.170;4.442;2023-12-20T05:54:16;35.58;;;4.15;;
25922;SDS011;13725;51.170;4.442;2023-12-20T05:56:41;17.92;;;3.80;;
25922;SDS011;13725;51.170;4.442;2023-12-20T05:59:07;16.73;;;3.63;;
25922;SDS011;13725;51.170;4.442;2023-12-20T06:01:33;35.65;;;4.40;;
25922;SDS011;13725;51.170;4.442;2023-12-20T06:03:59;23.05;;;3.75;;
25922;SDS011;13725;51.170;4.442;2023-12-20T06:06:24;26.90;;;4.32;;
25922;SDS011;13725;51.170;4.442;2023-12-20T06:08:50;29.10;;;4.07;;
25922;SDS011;13725;51.170;4.442;2023-12-20T06:11:16;16.02;;;3.63;;
25922;SDS011;13725;51.170;4.442;2023-12-20T06:13:42;23.83;;;4.03;;
25922;SDS011;13725;51.170;4.442;2023-12-20T06:16:07;31.98;;;3.83;;
25922;SDS011;13725;51.170;4.442;2023-12-20T06:18:33;22.25;;;4.20;;
25922;SDS011;13725;51.170;4.442;2023-12-20T06:20:59;24.45;;;4.40;;
25922;SDS011;13725;51.170;4.442;2023-12-20T06:23:24;24.08;;;4.10;;
25922;SDS011;13725;51.170;4.442;2023-12-20T06:25:50;28.90;;;3.90;;
25922;SDS011;13725;51.170;4.442;2023-12-20T06:28:16;24.45;;;4.00;;
25922;SDS011;13725;51.170;4.442;2023-12-20T06:30:42;23.85;;;3.53;;
25922;SDS011;13725;51.170;4.442;2023-12-20T06:33:08;29.83;;;4.35;;
25922;SDS011;13725;51.170;4.442;2023-12-20T06:35:36;13.85;;;3.75;;
25922;SDS011;13725;51.170;4.442;2023-12-20T06:38:02;25.63;;;4.93;;
25922;SDS011;13725;51.170;4.442;2023-12-20T06:40:28;33.22;;;4.65;;
25922;SDS011;13725;51.170;4.442;2023-12-20T06:42:53;25.42;;;4.63;;
25922;SDS011;13725;51.170;4.442;2023-12-20T06:45:19;23.52;;;4.70;;
25922;SDS011;13725;51.170;4.442;2023-12-20T06:47:45;22.17;;;3.90;;
25922;SDS011;13725;51.170;4.442;2023-12-20T06:50:10;32.30;;;4.15;;
25922;SDS011;13725;51.170;4.442;2023-12-20T06:52:36;23.63;;;4.85;;
25922;SDS011;13725;51.170;4.442;2023-12-20T06:55:02;15.50;;;3.22;;
25922;SDS011;13725;51.170;4.442;2023-12-20T06:57:29;23.60;;;4.80;;
25922;SDS011;13725;51.170;4.442;2023-12-20T06:59:54;21.45;;;4.10;;
25922;SDS011;13725;51.170;4.442;2023-12-20T07:02:20;21.88;;;3.35;;
25922;SDS011;13725;51.170;4.442;2023-12-20T07:04:47;23.23;;;3.53;;
25922;SDS011;13725;51.170;4.442;2023-12-20T07:07:13;26.38;;;4.10;;
25922;SDS011;13725;51.170;4.442;2023-12-20T07:09:39;29.02;;;3.90;;
25922;SDS011;13725;51.170;4.442;2023-12-20T07:12:07;19.70;;;3.80;;
25922;SDS011;13725;51.170;4.442;2023-12-20T07:14:33;29.02;;;4.20;;
25922;SDS011;13725;51.170;4.442;2023-12-20T07:16:59;26.63;;;3.50;;
25922;SDS011;13725;51.170;4.442;2023-12-20T07:19:25;26.55;;;4.65;;
25922;SDS011;13725;51.170;4.442;2023-12-20T07:21:50;20.40;;;4.13;;
25922;SDS011;13725;51.170;4.442;2023-12-20T07:24:16;23.67;;;3.80;;
25922;SDS011;13725;51.170;4.442;2023-12-20T07:26:42;19.33;;;3.15;;
25922;SDS011;13725;51.170;4.442;2023-12-20T07:29:08;19.80;;;3.67;;
25922;SDS011;13725;51.170;4.442;2023-12-20T07:31:34;26.13;;;3.60;;
25922;SDS011;13725;51.170;4.442;2023-12-20T07:34:00;19.80;;;3.15;;
25922;SDS011;13725;51.170;4.442;2023-12-20T07:36:27;23.75;;;3.88;;
25922;SDS011;13725;51.170;4.442;2023-12-20T07:38:52;21.95;;;3.55;;
25922;SDS011;13725;51.170;4.442;2023-12-20T07:41:18;32.00;;;5.25;;
25922;SDS011;13725;51.170;4.442;2023-12-20T07:43:46;21.58;;;3.85;;
25922;SDS011;13725;51.170;4.442;2023-12-20T07:46:12;11.98;;;2.97;;
25922;SDS011;13725;51.170;4.442;2023-12-20T07:48:38;28.77;;;3.65;;
25922;SDS011;13725;51.170;4.442;2023-12-20T07:51:04;19.77;;;3.38;;
25922;SDS011;13725;51.170;4.442;2023-12-20T07:53:32;25.30;;;4.10;;
25922;SDS011;13725;51.170;4.442;2023-12-20T07:55:58;23.80;;;4.00;;
25922;SDS011;13725;51.170;4.442;2023-12-20T07:58:24;27.77;;;3.78;;
25922;SDS011;13725;51.170;4.442;2023-12-20T08:00:49;18.83;;;4.85;;
25922;SDS011;13725;51.170;4.442;2023-12-20T08:03:15;22.48;;;3.75;;
25922;SDS011;13725;51.170;4.442;2023-12-20T08:05:42;26.67;;;3.03;;
25922;SDS011;13725;51.170;4.442;2023-12-20T08:08:08;17.85;;;3.03;;
25922;SDS011;13725;51.170;4.442;2023-12-20T08:10:33;18.83;;;3.00;;
25922;SDS011;13725;51.170;4.442;2023-12-20T08:12:59;29.65;;;3.90;;
25922;SDS011;13725;51.170;4.442;2023-12-20T08:15:25;25.02;;;3.22;;
25922;SDS011;13725;51.170;4.442;2023-12-20T08:17:50;22.55;;;3.70;;
25922;SDS011;13725;51.170;4.442;2023-12-20T08:20:16;19.63;;;3.72;;
25922;SDS011;13725;51.170;4.442;2023-12-20T08:22:42;21.23;;;3.67;;
25922;SDS011;13725;51.170;4.442;2023-12-20T08:25:08;26.20;;;4.25;;
25922;SDS011;13725;51.170;4.442;2023-12-20T08:27:36;22.60;;;3.25;;
25922;SDS011;13725;51.170;4.442;2023-12-20T08:30:05;19.38;;;4.18;;
25922;SDS011;13725;51.170;4.442;2023-12-20T08:32:31;21.08;;;2.85;;
25922;SDS011;13725;51.170;4.442;2023-12-20T08:34:57;26.90;;;3.63;;
25922;SDS011;13725;51.170;4.442;2023-12-20T08:37:23;20.75;;;3.28;;
25922;SDS011;13725;51.170;4.442;2023-12-20T08:39:50;21.10;;;4.80;;
25922;SDS011;13725;51.170;4.442;2023-12-20T08:42:16;20.98;;;3.47;;
25922;SDS011;13725;51.170;4.442;2023-12-20T08:44:42;26.80;;;3.10;;
25922;SDS011;13725;51.170;4.442;2023-12-20T08:47:07;24.38;;;3.13;;
25922;SDS011;13725;51.170;4.442;2023-12-20T08:49:33;18.52;;;2.85;;
25922;SDS011;13725;51.170;4.442;2023-12-20T08:51:59;18.63;;;3.38;;
25922;SDS011;13725;51.170;4.442;2023-12-20T08:54:25;26.30;;;5.25;;
25922;SDS011;13725;51.170;4.442;2023-12-20T08:56:50;15.45;;;3.58;;
25922;SDS011;13725;51.170;4.442;2023-12-20T08:59:16;15.35;;;2.90;;
25922;SDS011;13725;51.170;4.442;2023-12-20T09:01:43;18.75;;;4.38;;
25922;SDS011;13725;51.170;4.442;2023-12-20T09:04:09;12.57;;;2.67;;
25922;SDS011;13725;51.170;4.442;2023-12-20T09:06:36;13.68;;;2.75;;
25922;SDS011;13725;51.170;4.442;2023-12-20T09:09:01;18.30;;;3.80;;
25922;SDS011;13725;51.170;4.442;2023-12-20T09:11:27;11.70;;;3.17;;
25922;SDS011;13725;51.170;4.442;2023-12-20T09:13:53;17.58;;;2.95;;
25922;SDS011;13725;51.170;4.442;2023-12-20T09:16:19;13.32;;;2.28;;
25922;SDS011;13725;51.170;4.442;2023-12-20T09:18:44;23.85;;;3.25;;
25922;SDS011;13725;51.170;4.442;2023-12-20T09:21:10;14.82;;;2.30;;
25922;SDS011;13725;51.170;4.442;2023-12-20T09:23:36;24.02;;;2.95;;
25922;SDS011;13725;51.170;4.442;2023-12-20T09:26:02;11.85;;;2.55;;
25922;SDS011;13725;51.170;4.442;2023-12-20T09:28:28;17.75;;;5.07;;
25922;SDS011;13725;51.170;4.442;2023-12-20T09:30:53;22.70;;;5.72;;
25922;SDS011;13725;51.170;4.442;2023-12-20T09:33:19;13.55;;;2.83;;
25922;SDS011;13725;51.170;4.442;2023-12-20T09:35:46;15.75;;;2.67;;
25922;SDS011;13725;51.170;4.442;2023-12-20T09:38:12;15.77;;;3.33;;
25922;SDS011;13725;51.170;4.442;2023-12-20T09:40:41;12.27;;;3.22;;
25922;SDS011;13725;51.170;4.442;2023-12-20T09:43:25;19.27;;;3.80;;
25922;SDS011;13725;51.170;4.442;2023-12-20T09:45:52;14.50;;;2.92;;
25922;SDS011;13725;51.170;4.442;2023-12-20T09:48:18;11.13;;;2.47;;
25922;SDS011;13725;51.170;4.442;2023-12-20T09:50:45;13.27;;;2.88;;
25922;SDS011;13725;51.170;4.442;2023-12-20T09:53:12;14.13;;;3.67;;
25922;SDS011;13725;51.170;4.442;2023-12-20T09:55:41;15.57;;;3.03;;
25922;SDS011;13725;51.170;4.442;2023-12-20T09:58:07;16.67;;;2.97;;
25922;SDS011;13725;51.170;4.442;2023-12-20T10:00:36;13.93;;;2.92;;
25922;SDS011;13725;51.170;4.442;2023-12-20T10:03:02;19.25;;;2.83;;
25922;SDS011;13725;51.170;4.442;2023-12-20T10:05:31;13.95;;;3.03;;
25922;SDS011;13725;51.170;4.442;2023-12-20T10:07:58;19.65;;;2.85;;
25922;SDS011;13725;51.170;4.442;2023-12-20T10:10:25;15.60;;;2.75;;
25922;SDS011;13725;51.170;4.442;2023-12-20T10:13:02;14.63;;;2.90;;
25922;SDS011;13725;51.170;4.442;2023-12-20T10:15:29;16.98;;;3.35;;
25922;SDS011;13725;51.170;4.442;2023-12-20T10:17:54;13.23;;;2.70;;
25922;SDS011;13725;51.170;4.442;2023-12-20T10:20:20;10.75;;;2.45;;
25922;SDS011;13725;51.170;4.442;2023-12-20T10:22:46;16.27;;;3.40;;
25922;SDS011;13725;51.170;4.442;2023-12-20T10:25:12;13.35;;;2.72;;
25922;SDS011;13725;51.170;4.442;2023-12-20T10:27:38;22.17;;;3.15;;
25922;SDS011;13725;51.170;4.442;2023-12-20T10:30:04;12.05;;;3.00;;
25922;SDS011;13725;51.170;4.442;2023-12-20T10:32:30;15.07;;;2.42;;
25922;SDS011;13725;51.170;4.442;2023-12-20T10:34:56;16.95;;;3.67;;
25922;SDS011;13725;51.170;4.442;2023-12-20T10:37:24;15.73;;;3.03;;
25922;SDS011;13725;51.170;4.442;2023-12-20T10:39:50;17.15;;;2.60;;
25922;SDS011;13725;51.170;4.442;2023-12-20T10:42:22;29.13;;;2.90;;
25922;SDS011;13725;51.170;4.442;2023-12-20T10:44:52;14.63;;;3.00;;
25922;SDS011;13725;51.170;4.442;2023-12-20T10:47:22;22.48;;;3.88;;
25922;SDS011;13725;51.170;4.442;2023-12-20T10:49:49;18.80;;;2.80;;
25922;SDS011;13725;51.170;4.442;2023-12-20T10:52:18;20.90;;;3.58;;
25922;SDS011;13725;51.170;4.442;2023-12-20T10:54:45;15.35;;;2.83;;
25922;SDS011;13725;51.170;4.442;2023-12-20T10:57:11;23.15;;;3.90;;
25922;SDS011;13725;51.170;4.442;2023-12-20T10:59:37;14.98;;;2.60;;
25922;SDS011;13725;51.170;4.442;2023-12-20T11:02:04;14.90;;;2.95;;
25922;SDS011;13725;51.170;4.442;2023-12-20T11:04:34;10.05;;;2.63;;
25922;SDS011;13725;51.170;4.442;2023-12-20T11:07:16;14.95;;;2.85;;
25922;SDS011;13725;51.170;4.442;2023-12-20T11:09:54;12.20;;;3.28;;
25922;SDS011;13725;51.170;4.442;2023-12-20T11:15:20;12.38;;;2.97;;
25922;SDS011;13725;51.170;4.442;2023-12-20T11:17:51;18.38;;;2.90;;
25922;SDS011;13725;51.170;4.442;2023-12-20T11:20:24;14.82;;;2.65;;
25922;SDS011;13725;51.170;4.442;2023-12-20T11:23:00;19.08;;;2.72;;
25922;SDS011;13725;51.170;4.442;2023-12-20T11:25:26;16.52;;;3.33;;
25922;SDS011;13725;51.170;4.442;2023-12-20T11:28:08;13.50;;;2.60;;
25922;SDS011;13725;51.170;4.442;2023-12-20T11:30:40;22.30;;;3.45;;
25922;SDS011;13725;51.170;4.442;2023-12-20T11:33:09;17.48;;;2.95;;
25922;SDS011;13725;51.170;4.442;2023-12-20T11:35:34;14.90;;;2.90;;
25922;SDS011;13725;51.170;4.442;2023-12-20T11:38:01;14.30;;;2.92;;
25922;SDS011;13725;51.170;4.442;2023-12-20T11:40:27;15.50;;;2.70;;
25922;SDS011;13725;51.170;4.442;2023-12-20T11:42:53;17.88;;;2.78;;
25922;SDS011;13725;51.170;4.442;2023-12-20T11:45:20;13.95;;;2.97;;
25922;SDS011;13725;51.170;4.442;2023-12-20T11:47:51;15.60;;;3.00;;
25922;SDS011;13725;51.170;4.442;2023-12-20T11:50:20;14.50;;;3.63;;
25922;SDS011;13725;51.170;4.442;2023-12-20T11:52:47;21.73;;;4.25;;
25922;SDS011;13725;51.170;4.442;2023-12-20T11:55:14;13.80;;;3.42;;
25922;SDS011;13725;51.170;4.442;2023-12-20T11:57:40;20.90;;;2.58;;
25922;SDS011;13725;51.170;4.442;2023-12-20T12:00:06;23.50;;;2.53;;
25922;SDS011;13725;51.170;4.442;2023-12-20T12:02:39;18.27;;;3.17;;
25922;SDS011;13725;51.170;4.442;2023-12-20T12:05:05;28.48;;;3.40;;
25922;SDS011;13725;51.170;4.442;2023-12-20T12:07:31;14.05;;;2.97;;
25922;SDS011;13725;51.170;4.442;2023-12-20T12:09:59;22.00;;;3.65;;
25922;SDS011;13725;51.170;4.442;2023-12-20T12:12:24;20.02;;;3.33;;
25922;SDS011;13725;51.170;4.442;2023-12-20T12:14:52;23.98;;;3.10;;
25922;SDS011;13725;51.170;4.442;2023-12-20T12:17:18;13.77;;;3.60;;
25922;SDS011;13725;51.170;4.442;2023-12-20T12:19:44;16.92;;;3.67;;
25922;SDS011;13725;51.170;4.442;2023-12-20T12:22:10;19.52;;;3.22;;
25922;SDS011;13725;51.170;4.442;2023-12-20T12:24:42;22.10;;;3.38;;
25922;SDS011;13725;51.170;4.442;2023-12-20T12:27:09;19.10;;;3.35;;
25922;SDS011;13725;51.170;4.442;2023-12-20T12:29:35;19.17;;;3.75;;
25922;SDS011;13725;51.170;4.442;2023-12-20T12:32:05;18.65;;;3.88;;
25922;SDS011;13725;51.170;4.442;2023-12-20T12:34:32;11.30;;;3.10;;
25922;SDS011;13725;51.170;4.442;2023-12-20T12:36:59;19.00;;;3.33;;
25922;SDS011;13725;51.170;4.442;2023-12-20T12:39:25;11.68;;;2.83;;
25922;SDS011;13725;51.170;4.442;2023-12-20T12:41:53;25.38;;;3.47;;
25922;SDS011;13725;51.170;4.442;2023-12-20T12:44:19;22.85;;;3.85;;
25922;SDS011;13725;51.170;4.442;2023-12-20T12:46:45;22.77;;;3.50;;
25922;SDS011;13725;51.170;4.442;2023-12-20T12:49:12;20.00;;;4.05;;
25922;SDS011;13725;51.170;4.442;2023-12-20T12:51:38;18.70;;;2.92;;
25922;SDS011;13725;51.170;4.442;2023-12-20T12:54:04;19.58;;;3.88;;
25922;SDS011;13725;51.170;4.442;2023-12-20T12:56:30;39.30;;;5.53;;
25922;SDS011;13725;51.170;4.442;2023-12-20T12:58:56;15.35;;;2.90;;
25922;SDS011;13725;51.170;4.442;2023-12-20T13:01:21;21.77;;;3.30;;
25922;SDS011;13725;51.170;4.442;2023-12-20T13:03:47;19.65;;;3.70;;
25922;SDS011;13725;51.170;4.442;2023-12-20T13:06:13;24.35;;;3.67;;
25922;SDS011;13725;51.170;4.442;2023-12-20T13:08:39;21.98;;;2.88;;
25922;SDS011;13725;51.170;4.442;2023-12-20T13:11:04;16.83;;;3.35;;
25922;SDS011;13725;51.170;4.442;2023-12-20T13:13:30;17.77;;;3.60;;
25922;SDS011;13725;51.170;4.442;2023-12-20T13:15:56;23.23;;;3.38;;
25922;SDS011;13725;51.170;4.442;2023-12-20T13:18:22;16.48;;;2.88;;
25922;SDS011;13725;51.170;4.442;2023-12-20T13:20:49;14.50;;;2.90;;
25922;SDS011;13725;51.170;4.442;2023-12-20T13:23:14;26.50;;;3.97;;
25922;SDS011;13725;51.170;4.442;2023-12-20T13:25:44;22.00;;;3.08;;
25922;SDS011;13725;51.170;4.442;2023-12-20T13:28:13;29.50;;;3.80;;
25922;SDS011;13725;51.170;4.442;2023-12-20T13:30:39;17.65;;;3.35;;
25922;SDS011;13725;51.170;4.442;2023-12-20T13:33:07;18.38;;;3.58;;
25922;SDS011;13725;51.170;4.442;2023-12-20T13:35:33;15.13;;;3.50;;
25922;SDS011;13725;51.170;4.442;2023-12-20T13:37:59;18.27;;;3.20;;
25922;SDS011;13725;51.170;4.442;2023-12-20T13:40:25;14.40;;;3.00;;
25922;SDS011;13725;51.170;4.442;2023-12-20T13:42:51;20.05;;;2.88;;
25922;SDS011;13725;51.170;4.442;2023-12-20T13:45:17;27.73;;;3.75;;
25922;SDS011;13725;51.170;4.442;2023-12-20T13:47:43;16.15;;;3.13;;
25922;SDS011;13725;51.170;4.442;2023-12-20T13:50:09;22.85;;;3.90;;
25922;SDS011;13725;51.170;4.442;2023-12-20T13:52:35;16.48;;;3.05;;
25922;SDS011;13725;51.170;4.442;2023-12-20T13:55:01;17.95;;;4.55;;
25922;SDS011;13725;51.170;4.442;2023-12-20T13:57:27;16.13;;;3.40;;
25922;SDS011;13725;51.170;4.442;2023-12-20T13:59:55;12.73;;;2.63;;
25922;SDS011;13725;51.170;4.442;2023-12-20T14:02:23;14.07;;;3.08;;
25922;SDS011;13725;51.170;4.442;2023-12-20T14:04:49;25.63;;;3.50;;
25922;SDS011;13725;51.170;4.442;2023-12-20T14:07:15;14.63;;;2.97;;
25922;SDS011;13725;51.170;4.442;2023-12-20T14:09:41;15.75;;;3.22;;
25922;SDS011;13725;51.170;4.442;2023-12-20T14:12:13;18.70;;;2.78;;
25922;SDS011;13725;51.170;4.442;2023-12-20T14:14:39;21.90;;;3.80;;
25922;SDS011;13725;51.170;4.442;2023-12-20T14:17:05;18.58;;;3.20;;
25922;SDS011;13725;51.170;4.442;2023-12-20T14:19:31;13.07;;;2.90;;
25922;SDS011;13725;51.170;4.442;2023-12-20T14:21:57;22.90;;;3.67;;
25922;SDS011;13725;51.170;4.442;2023-12-20T14:24:28;17.65;;;3.35;;
25922;SDS011;13725;51.170;4.442;2023-12-20T14:26:53;17.83;;;3.70;;
25922;SDS011;13725;51.170;4.442;2023-12-20T14:29:19;14.63;;;2.97;;
25922;SDS011;13725;51.170;4.442;2023-12-20T14:31:45;17.42;;;3.17;;